Enter the Airport ICAO Code

Search by Airport or City

Current Weather

LEPP | Pamplona Airport

Pamplona, Navarre, Spain

Last Update 31 Minutes Ago

Mostly Cloudy Sky

Temperature of 04 ēC

Light Winds from NorthWest

Temperature

04 ēC

Dew Point Temperature

01 ēC

Relative Humidity

80.79 %

Wind Direction

NorthWest (300ē, Without Significant Variations)

Wind Velocity

6 km/h (03 kt)

Gusts

None

Visibility

Greater than 10 Kilometers

Sea Level Pressure

1019 hPa (Hectopascals)

Layers of Clouds

5% to 30% of Sky Covered from 549 mts (1800 ft) Above Ground Level.

60% to 90% of Sky Covered from 1402 mts (4600 ft) Above Ground Level.

METAR LEPP 022100Z 30003KT 9999 FEW018 BKN046 04/01 Q1019

Weather Forecast

LEPP | Pamplona Airport

Pamplona, Navarre, Spain

Forecast valid for the next 23 Hours

From now on it is expected:

Mostly Cloudy Sky

Light to Moderate Winds from North

In 14 hours it is expected the begining of 9 hours with intermittent periods of:

Moderate Winds from South

In 20 hours it is expected the begining of 3 hours with intermittent periods of:

Rain

Maximum Temperature

10 ēC in 16 Hours

Minimum Temperature

01 ēC in 8 Hours

TAF LEPP 022000Z 0221/0321 34008KT 9999 SCT020 BKN040 TX10/0314Z TN01/0306Z TEMPO 0312/0321 19010KT PROB30 TEMPO 0318/0321 RA